createdAt,value
2023-03-10T00:01:29.350Z,5.28
2023-03-10T00:03:57.274Z,5.90
2023-03-10T00:06:25.896Z,5.28
2023-03-10T00:08:53.346Z,5.05
2023-03-10T00:11:21.055Z,5.05
2023-03-10T00:13:48.508Z,7.13
2023-03-10T00:16:26.618Z,5.93
2023-03-10T00:18:54.280Z,7.43
2023-03-10T00:21:24.232Z,5.75
2023-03-10T00:23:51.712Z,4.20
2023-03-10T00:26:19.470Z,6.65
2023-03-10T00:28:47.599Z,6.03
2023-03-10T00:31:17.003Z,5.80
2023-03-10T00:33:44.242Z,5.25
2023-03-10T00:36:11.667Z,5.05
2023-03-10T00:38:39.341Z,4.78
2023-03-10T00:41:15.644Z,6.07
2023-03-10T00:43:43.458Z,4.60
2023-03-10T00:46:11.129Z,4.82
2023-03-10T00:48:38.777Z,5.68
2023-03-10T00:51:06.557Z,6.00
2023-03-10T00:53:38.107Z,8.48
2023-03-10T00:56:13.939Z,10.32
2023-03-10T00:58:41.712Z,11.32
2023-03-10T01:01:25.876Z,14.52
2023-03-10T01:03:55.247Z,5.45
2023-03-10T01:06:22.933Z,6.20
2023-03-10T01:08:50.620Z,3.95
2023-03-10T01:11:19.005Z,4.55
2023-03-10T01:13:47.191Z,3.70
2023-03-10T01:16:14.436Z,4.63
2023-03-10T01:18:43.295Z,4.75
2023-03-10T01:21:18.477Z,5.40
2023-03-10T01:23:45.977Z,7.35
2023-03-10T01:26:13.721Z,2.95
2023-03-10T01:28:41.104Z,8.77
2023-03-10T01:31:08.421Z,5.78
2023-03-10T01:33:36.165Z,5.60
2023-03-10T01:36:10.781Z,7.30
2023-03-10T01:38:38.929Z,6.75
2023-03-10T01:41:06.237Z,10.93
2023-03-10T01:43:35.557Z,8.20
2023-03-10T01:46:21.193Z,5.85
2023-03-10T01:48:49.163Z,6.40
2023-03-10T01:51:16.711Z,7.13
2023-03-10T01:53:43.905Z,7.70
2023-03-10T01:56:11.136Z,4.40
2023-03-10T01:58:40.728Z,8.13
2023-03-10T02:01:08.298Z,3.92
2023-03-10T02:04:01.092Z,4.10
2023-03-10T02:06:28.403Z,10.30
2023-03-10T02:08:57.990Z,4.15
2023-03-10T02:11:26.109Z,5.68
2023-03-10T02:13:53.823Z,6.85
2023-03-10T02:16:22.220Z,7.25
2023-03-10T02:18:49.402Z,9.15
2023-03-10T02:21:43.055Z,10.25
2023-03-10T02:24:22.652Z,8.27
2023-03-10T02:27:04.519Z,17.77
2023-03-10T02:29:52.412Z,13.53
2023-03-10T02:32:24.365Z,11.23
2023-03-10T02:34:51.628Z,11.85
2023-03-10T02:37:21.097Z,13.60
2023-03-10T02:39:48.552Z,10.90
2023-03-10T02:42:16.308Z,12.35
2023-03-10T02:44:43.713Z,9.27
2023-03-10T02:47:12.442Z,14.50
2023-03-10T02:49:40.473Z,8.50
2023-03-10T02:52:10.402Z,9.45
2023-03-10T02:54:37.884Z,9.73
2023-03-10T02:57:05.788Z,6.00
2023-03-10T02:59:33.184Z,7.93
2023-03-10T03:02:00.491Z,4.95
2023-03-10T03:04:28.671Z,5.80
2023-03-10T03:06:55.901Z,6.70
2023-03-10T03:09:22.999Z,3.90
2023-03-10T03:11:51.179Z,3.85
2023-03-10T03:14:19.673Z,5.22
2023-03-10T03:16:49.374Z,6.00
2023-03-10T03:19:16.877Z,7.88
2023-03-10T03:21:49.608Z,9.88
2023-03-10T03:24:18.395Z,10.32
2023-03-10T03:26:45.595Z,10.23
2023-03-10T03:29:17.642Z,13.07
2023-03-10T03:31:45.194Z,10.93
2023-03-10T03:34:17.953Z,12.00
2023-03-10T03:36:47.165Z,9.77
2023-03-10T03:39:22.150Z,8.00
2023-03-10T03:41:56.991Z,6.72
2023-03-10T03:44:26.676Z,7.25
2023-03-10T03:46:55.231Z,10.02
2023-03-10T03:49:24.316Z,7.68
2023-03-10T03:51:51.758Z,6.43
2023-03-10T03:54:19.668Z,11.00
2023-03-10T03:56:47.879Z,15.20
2023-03-10T03:59:16.358Z,13.63
2023-03-10T04:01:44.857Z,14.88
2023-03-10T04:04:12.304Z,14.85
2023-03-10T04:06:40.873Z,5.82
2023-03-10T04:09:10.205Z,8.32
2023-03-10T04:11:38.564Z,8.13
2023-03-10T04:14:06.391Z,10.73
2023-03-10T04:16:33.656Z,12.07
2023-03-10T04:19:03.213Z,8.95
2023-03-10T04:21:30.776Z,11.73
2023-03-10T04:23:59.118Z,8.77
2023-03-10T04:26:31.225Z,10.23
2023-03-10T04:28:58.983Z,7.80
2023-03-10T04:31:28.252Z,8.00
2023-03-10T04:33:56.756Z,9.10
2023-03-10T04:36:23.879Z,8.10
2023-03-10T04:38:54.673Z,8.30
2023-03-10T04:41:25.477Z,6.10
2023-03-10T04:43:53.495Z,7.32
2023-03-10T04:46:20.744Z,6.05
2023-03-10T04:48:48.890Z,5.90
2023-03-10T04:51:17.108Z,6.15
2023-03-10T04:53:49.317Z,5.03
2023-03-10T04:56:17.235Z,5.72
2023-03-10T04:58:45.168Z,6.75
2023-03-10T05:01:15.427Z,5.47
2023-03-10T05:03:50.099Z,6.97
2023-03-10T05:06:19.646Z,9.32
2023-03-10T05:09:00.716Z,9.55
2023-03-10T05:11:29.588Z,8.63
2023-03-10T05:13:57.065Z,6.25
2023-03-10T05:16:24.575Z,7.75
2023-03-10T05:18:53.604Z,9.02
2023-03-10T05:21:25.470Z,22.23
2023-03-10T05:23:54.801Z,7.95
2023-03-10T05:26:23.792Z,10.52
2023-03-10T05:28:51.434Z,12.00
2023-03-10T05:31:27.821Z,8.77
2023-03-10T05:34:04.564Z,9.68
2023-03-10T05:36:32.144Z,10.82
2023-03-10T05:39:00.478Z,9.65
2023-03-10T05:41:29.304Z,11.07
2023-03-10T05:43:58.991Z,8.38
2023-03-10T05:46:26.587Z,8.30
2023-03-10T05:48:57.633Z,7.05
2023-03-10T05:51:25.528Z,7.70
2023-03-10T05:53:52.962Z,6.88
2023-03-10T05:56:25.079Z,10.15
2023-03-10T05:58:56.656Z,7.97
2023-03-10T06:01:29.432Z,8.00
2023-03-10T06:03:56.989Z,7.28
2023-03-10T06:06:24.526Z,8.32
2023-03-10T06:08:51.909Z,7.63
2023-03-10T06:11:19.899Z,10.18
2023-03-10T06:13:47.315Z,7.40
2023-03-10T06:16:14.628Z,8.18
2023-03-10T06:18:41.807Z,6.47
2023-03-10T06:21:11.955Z,10.52
2023-03-10T06:23:39.449Z,7.32
2023-03-10T06:26:16.510Z,15.77
2023-03-10T06:28:45.373Z,18.70
2023-03-10T06:31:15.219Z,9.00
2023-03-10T06:33:42.842Z,14.45
2023-03-10T06:36:11.354Z,13.35
2023-03-10T06:38:39.325Z,52.78
2023-03-10T06:41:07.306Z,18.20
2023-03-10T06:43:34.750Z,35.53
2023-03-10T06:46:03.964Z,11.40
2023-03-10T06:48:31.319Z,17.60
2023-03-10T06:50:58.490Z,11.77
2023-03-10T06:53:27.170Z,16.15
2023-03-10T06:56:02.642Z,13.40
2023-03-10T06:58:30.279Z,18.13
2023-03-10T07:00:58.061Z,21.70
2023-03-10T07:03:26.124Z,17.05
2023-03-10T07:05:53.253Z,13.55
2023-03-10T07:08:20.855Z,17.10
2023-03-10T07:10:48.191Z,13.98
2023-03-10T07:13:17.254Z,18.58
2023-03-10T07:15:44.812Z,32.72
2023-03-10T07:18:12.874Z,15.50
2023-03-10T07:20:41.294Z,9.40
2023-03-10T07:23:08.752Z,13.30
2023-03-10T07:25:36.367Z,19.42
2023-03-10T07:28:04.234Z,12.48
2023-03-10T07:30:32.307Z,11.23
2023-03-10T07:33:00.160Z,11.88
2023-03-10T07:35:27.398Z,12.70
2023-03-10T07:37:54.553Z,13.52
2023-03-10T07:40:24.963Z,14.80
2023-03-10T07:42:54.263Z,18.50
2023-03-10T07:45:25.336Z,11.98
2023-03-10T07:47:53.318Z,22.67
2023-03-10T07:50:21.358Z,13.88
2023-03-10T07:52:48.825Z,12.80
2023-03-10T07:55:16.240Z,11.85
2023-03-10T07:57:43.565Z,8.65
2023-03-10T08:00:11.177Z,14.90
2023-03-10T08:02:41.652Z,14.82
2023-03-10T08:05:09.659Z,13.88
2023-03-10T08:07:38.024Z,14.95
2023-03-10T08:10:06.156Z,10.40
2023-03-10T08:12:34.185Z,6.93
2023-03-10T08:15:01.370Z,8.32
2023-03-10T08:17:30.851Z,9.35
2023-03-10T08:19:58.752Z,13.50
2023-03-10T08:22:26.399Z,13.25
2023-03-10T08:24:53.925Z,7.13
2023-03-10T08:27:21.529Z,8.55
2023-03-10T08:29:49.004Z,13.43
2023-03-10T08:32:16.667Z,15.10
2023-03-10T08:34:44.144Z,9.27
2023-03-10T08:37:11.676Z,12.40
2023-03-10T08:39:39.327Z,31.30
2023-03-10T08:42:06.763Z,34.28
2023-03-10T08:44:34.331Z,12.93
2023-03-10T08:47:01.946Z,11.93
2023-03-10T08:49:29.447Z,12.20
2023-03-10T08:51:56.734Z,14.68
2023-03-10T08:54:24.185Z,16.52
2023-03-10T08:56:51.530Z,8.82
2023-03-10T08:59:19.187Z,18.02
2023-03-10T09:01:46.696Z,11.13
2023-03-10T09:04:13.896Z,15.63
2023-03-10T09:06:41.539Z,9.80
2023-03-10T09:09:09.939Z,13.15
2023-03-10T09:11:39.134Z,5.90
2023-03-10T09:14:07.426Z,8.02
2023-03-10T09:16:35.264Z,14.95
2023-03-10T09:19:02.649Z,7.28
2023-03-10T09:21:33.178Z,8.38
2023-03-10T09:24:00.991Z,12.93
2023-03-10T09:26:28.050Z,9.20
2023-03-10T09:28:57.099Z,5.50
2023-03-10T09:31:27.922Z,9.95
2023-03-10T09:33:55.005Z,9.60
2023-03-10T09:36:22.319Z,16.45
2023-03-10T09:38:49.813Z,6.18
2023-03-10T09:41:18.590Z,11.75
2023-03-10T09:44:15.696Z,11.48
2023-03-10T09:47:20.108Z,16.17
2023-03-10T09:50:00.578Z,7.43
2023-03-10T09:52:41.640Z,9.57
2023-03-10T09:55:14.814Z,9.70
2023-03-10T09:57:41.909Z,11.05
2023-03-10T10:00:11.196Z,12.45
2023-03-10T10:02:47.641Z,14.48
2023-03-10T10:05:22.973Z,11.98
2023-03-10T10:07:53.538Z,12.52
2023-03-10T10:10:26.231Z,7.60
2023-03-10T10:12:54.603Z,7.13
2023-03-10T10:15:26.056Z,8.93
2023-03-10T10:18:02.976Z,7.30
2023-03-10T10:20:44.476Z,9.40
2023-03-10T10:23:30.490Z,13.65
2023-03-10T10:26:02.670Z,18.40
2023-03-10T10:28:38.088Z,13.18
2023-03-10T10:31:20.197Z,7.78
2023-03-10T10:33:56.398Z,16.48
2023-03-10T10:36:25.309Z,11.93
2023-03-10T10:38:53.886Z,23.77
2023-03-10T10:41:32.568Z,13.93
2023-03-10T10:44:07.919Z,10.45
2023-03-10T10:46:35.158Z,13.30
2023-03-10T10:49:24.839Z,23.00
2023-03-10T10:52:05.936Z,29.58
2023-03-10T10:54:43.789Z,16.08
2023-03-10T10:57:17.705Z,21.00
2023-03-10T10:59:44.997Z,24.15
2023-03-10T11:02:34.826Z,24.95
2023-03-10T11:05:19.708Z,20.70
2023-03-10T11:07:47.078Z,23.02
2023-03-10T11:10:15.484Z,17.40
2023-03-10T11:13:02.741Z,23.50
2023-03-10T11:15:32.702Z,23.27
2023-03-10T11:18:02.528Z,24.00
2023-03-10T11:20:44.876Z,27.48
2023-03-10T11:23:27.694Z,26.92
2023-03-10T11:28:56.927Z,31.77
2023-03-10T11:31:32.873Z,30.25
2023-03-10T11:34:22.041Z,35.20
2023-03-10T11:37:10.949Z,52.45
2023-03-10T11:39:38.826Z,43.97
2023-03-10T11:42:14.570Z,41.15
2023-03-10T11:45:13.153Z,47.95
2023-03-10T11:48:08.404Z,45.35
2023-03-10T11:50:43.842Z,54.05
2023-03-10T11:53:30.830Z,41.70
2023-03-10T12:00:34.845Z,35.58
2023-03-10T12:03:04.886Z,39.00
2023-03-10T12:05:39.446Z,35.05
2023-03-10T12:08:06.901Z,33.85
2023-03-10T12:10:34.549Z,36.38
2023-03-10T12:13:02.237Z,21.48
2023-03-10T12:15:32.324Z,31.45
2023-03-10T12:17:59.478Z,23.73
2023-03-10T12:20:29.828Z,22.08
2023-03-10T12:23:10.156Z,28.55
2023-03-10T12:25:38.674Z,37.20
2023-03-10T12:28:17.585Z,27.98
2023-03-10T12:30:48.833Z,24.27
2023-03-10T12:33:37.385Z,31.55
2023-03-10T12:36:37.250Z,38.70
2023-03-10T12:39:24.436Z,38.60
2023-03-10T12:42:01.940Z,49.38
2023-03-10T12:44:42.842Z,36.15
2023-03-10T12:47:26.186Z,43.17
2023-03-10T12:50:33.612Z,37.22
2023-03-10T12:53:20.925Z,36.45
2023-03-10T12:56:14.316Z,36.15
2023-03-10T12:58:46.082Z,31.83
2023-03-10T13:01:15.024Z,33.50
2023-03-10T13:03:44.092Z,36.05
2023-03-10T13:06:12.921Z,53.67
2023-03-10T13:08:40.081Z,43.50
2023-03-10T13:11:51.386Z,56.70
2023-03-10T13:14:20.563Z,60.85
2023-03-10T13:16:54.771Z,60.05
2023-03-10T13:19:24.337Z,60.75
2023-03-10T13:21:51.659Z,69.15
2023-03-10T13:24:35.597Z,49.63
2023-03-10T13:27:17.005Z,72.05
2023-03-10T13:30:17.521Z,65.07
2023-03-10T13:32:55.316Z,76.32
2023-03-10T13:35:35.973Z,85.70
2023-03-10T13:38:22.086Z,89.82
2023-03-10T13:41:03.071Z,86.78
2023-03-10T13:43:36.966Z,105.03
2023-03-10T13:46:15.699Z,104.78
2023-03-10T13:48:43.666Z,131.25
2023-03-10T13:51:32.066Z,165.00
2023-03-10T13:54:18.653Z,137.23
2023-03-10T13:56:46.574Z,70.53
2023-03-10T13:59:31.465Z,66.43
2023-03-10T14:02:00.109Z,42.60
2023-03-10T14:04:40.242Z,45.70
2023-03-10T14:07:18.539Z,48.75
2023-03-10T14:09:48.657Z,46.95
2023-03-10T14:12:34.123Z,48.58
2023-03-10T14:15:20.364Z,55.65
2023-03-10T14:18:06.900Z,61.55
2023-03-10T14:20:36.473Z,54.63
2023-03-10T14:23:26.872Z,62.20
2023-03-10T14:25:56.917Z,67.03
2023-03-10T14:28:25.834Z,87.88
2023-03-10T14:30:53.911Z,103.18
2023-03-10T14:33:22.687Z,64.05
2023-03-10T14:35:51.172Z,58.80
2023-03-10T14:38:19.262Z,76.60
2023-03-10T14:40:48.996Z,72.90
2023-03-10T14:43:24.971Z,74.30
2023-03-10T14:45:54.807Z,92.45
2023-03-10T14:48:25.130Z,82.85
2023-03-10T14:50:54.630Z,86.70
2023-03-10T14:53:25.205Z,84.85
2023-03-10T14:55:54.655Z,70.45
2023-03-10T14:58:23.838Z,80.90
2023-03-10T15:00:51.848Z,91.82
2023-03-10T15:03:19.225Z,73.75
2023-03-10T15:05:49.010Z,79.65
2023-03-10T15:08:17.311Z,83.88
2023-03-10T15:10:48.372Z,83.68
2023-03-10T15:13:17.852Z,91.45
2023-03-10T15:15:45.790Z,61.00
2023-03-10T15:18:14.838Z,86.00
2023-03-10T15:20:42.092Z,51.83
2023-03-10T15:23:09.208Z,64.30
2023-03-10T15:25:36.686Z,43.90
2023-03-10T15:28:04.005Z,41.55
2023-03-10T15:30:33.101Z,54.03
2023-03-10T15:33:00.616Z,33.03
2023-03-10T15:35:28.973Z,43.83
2023-03-10T15:37:56.894Z,51.47
2023-03-10T15:40:28.218Z,37.25
2023-03-10T15:42:59.868Z,41.70
2023-03-10T15:45:28.747Z,37.58
2023-03-10T15:47:56.355Z,35.30
2023-03-10T15:50:23.596Z,47.35
2023-03-10T15:53:05.284Z,39.88
2023-03-10T15:55:32.562Z,44.58
2023-03-10T15:57:59.780Z,49.28
2023-03-10T16:00:27.213Z,59.88
2023-03-10T16:02:54.671Z,45.55
2023-03-10T16:05:21.821Z,57.10
2023-03-10T16:07:49.618Z,55.72
2023-03-10T16:10:18.798Z,50.33
2023-03-10T16:12:46.287Z,66.50
2023-03-10T16:15:15.802Z,68.97
2023-03-10T16:17:44.611Z,78.97
2023-03-10T16:20:13.514Z,94.75
2023-03-10T16:22:42.874Z,98.45
2023-03-10T16:25:15.159Z,121.43
2023-03-10T16:27:45.778Z,99.15
2023-03-10T16:30:14.343Z,99.20
2023-03-10T16:32:46.184Z,99.18
2023-03-10T16:35:14.559Z,96.05
2023-03-10T16:37:42.170Z,97.95
2023-03-10T16:40:10.306Z,114.03
2023-03-10T16:42:37.941Z,106.60
2023-03-10T16:45:06.606Z,134.25
2023-03-10T16:47:34.110Z,140.38
2023-03-10T16:50:01.717Z,139.70
2023-03-10T16:52:28.877Z,133.20
2023-03-10T16:55:01.215Z,159.02
2023-03-10T16:57:28.628Z,163.32
2023-03-10T16:59:56.089Z,161.23
2023-03-10T17:02:23.469Z,78.22
2023-03-10T17:04:50.626Z,83.40
2023-03-10T17:07:19.410Z,87.72
2023-03-10T17:09:46.519Z,118.10
2023-03-10T17:12:13.928Z,113.75
2023-03-10T17:14:41.344Z,83.05
2023-03-10T17:17:08.609Z,64.43
2023-03-10T17:19:35.824Z,116.03
2023-03-10T17:22:03.243Z,112.40
2023-03-10T17:24:31.126Z,128.00
2023-03-10T17:26:58.718Z,113.47
2023-03-10T17:29:25.883Z,74.18
2023-03-10T17:31:53.709Z,46.72
2023-03-10T17:34:20.728Z,55.88
2023-03-10T17:36:51.134Z,42.95
2023-03-10T17:39:19.797Z,49.70
2023-03-10T17:41:47.661Z,43.78
2023-03-10T17:44:15.567Z,42.03
2023-03-10T17:46:43.155Z,40.72
2023-03-10T17:49:12.049Z,40.85
2023-03-10T17:51:43.502Z,39.85
2023-03-10T17:54:16.048Z,36.83
2023-03-10T17:56:43.362Z,39.63
2023-03-10T17:59:12.445Z,38.17
2023-03-10T18:01:39.730Z,33.20
2023-03-10T18:04:07.497Z,34.08
2023-03-10T18:06:35.516Z,36.58
2023-03-10T18:09:07.516Z,46.38
2023-03-10T18:11:35.229Z,58.08
2023-03-10T18:14:03.873Z,58.85
2023-03-10T18:16:33.598Z,62.70
2023-03-10T18:19:00.847Z,62.45
2023-03-10T18:21:28.310Z,67.55
2023-03-10T18:23:55.651Z,68.03
2023-03-10T18:26:27.123Z,69.35
2023-03-10T18:28:54.819Z,72.03
2023-03-10T18:31:29.922Z,83.15
2023-03-10T18:33:58.101Z,50.38
2023-03-10T18:36:25.578Z,237.57
2023-03-10T18:38:53.015Z,301.50
2023-03-10T18:41:22.457Z,359.50
2023-03-10T18:43:49.774Z,386.25
2023-03-10T18:46:17.280Z,425.95
2023-03-10T18:48:44.312Z,441.65
2023-03-10T18:51:12.281Z,441.02
2023-03-10T18:53:39.984Z,446.27
2023-03-10T18:56:07.787Z,474.80
2023-03-10T18:58:35.032Z,446.13
2023-03-10T19:01:02.247Z,439.63
2023-03-10T19:03:30.204Z,445.20
2023-03-10T19:05:57.767Z,442.70
2023-03-10T19:08:26.738Z,450.27
2023-03-10T19:10:58.499Z,437.52
2023-03-10T19:13:26.776Z,442.08
2023-03-10T19:15:54.384Z,434.52
2023-03-10T19:18:21.800Z,348.10
2023-03-10T19:20:50.607Z,388.77
2023-03-10T19:23:17.909Z,414.67
2023-03-10T19:25:45.047Z,435.02
2023-03-10T19:28:12.179Z,426.08
2023-03-10T19:30:42.520Z,416.33
2023-03-10T19:33:11.066Z,427.75
2023-03-10T19:35:38.371Z,402.95
2023-03-10T19:38:05.558Z,380.85
2023-03-10T19:40:33.176Z,367.13
2023-03-10T19:43:00.754Z,295.63
2023-03-10T19:45:28.357Z,243.15
2023-03-10T19:47:57.648Z,258.48
2023-03-10T19:50:25.513Z,285.17
2023-03-10T19:52:53.245Z,347.45
2023-03-10T19:55:23.396Z,302.77
2023-03-10T19:57:52.851Z,252.90
2023-03-10T20:00:27.343Z,309.17
2023-03-10T20:02:54.758Z,329.88
2023-03-10T20:05:22.387Z,336.70
2023-03-10T20:07:49.856Z,338.50
2023-03-10T20:10:17.799Z,292.38
2023-03-10T20:12:46.867Z,250.35
2023-03-10T20:15:14.380Z,254.38
2023-03-10T20:17:41.436Z,246.25
2023-03-10T20:20:12.967Z,271.23
2023-03-10T20:22:43.775Z,270.70
2023-03-10T20:25:12.781Z,263.05
2023-03-10T20:27:39.993Z,269.70
2023-03-10T20:30:09.401Z,278.40
2023-03-10T20:32:36.951Z,277.90
2023-03-10T20:35:04.200Z,227.90
2023-03-10T20:37:31.897Z,266.00
2023-03-10T20:39:58.986Z,265.30
2023-03-10T20:42:27.051Z,232.07
2023-03-10T20:44:54.099Z,286.75
2023-03-10T20:47:21.664Z,250.23
2023-03-10T20:49:48.987Z,239.95
2023-03-10T20:52:16.494Z,251.10
2023-03-10T20:54:43.862Z,259.98
2023-03-10T20:57:11.092Z,247.05
2023-03-10T20:59:38.490Z,242.23
2023-03-10T21:02:05.978Z,246.95
2023-03-10T21:04:33.742Z,248.05
2023-03-10T21:07:01.524Z,210.30
2023-03-10T21:09:28.708Z,199.45
2023-03-10T21:11:55.740Z,199.88
2023-03-10T21:14:23.252Z,190.00
2023-03-10T21:16:50.702Z,184.43
2023-03-10T21:19:18.010Z,200.57
2023-03-10T21:21:45.326Z,236.27
2023-03-10T21:24:12.811Z,245.88
2023-03-10T21:26:40.176Z,243.38
2023-03-10T21:29:07.492Z,270.85
2023-03-10T21:31:34.955Z,211.65
2023-03-10T21:34:02.839Z,224.35
2023-03-10T21:36:30.481Z,224.88
2023-03-10T21:38:57.787Z,224.15
2023-03-10T21:41:26.461Z,208.10
2023-03-10T21:44:13.693Z,212.27
2023-03-10T21:46:41.207Z,237.98
2023-03-10T21:49:08.740Z,249.35
2023-03-10T21:51:36.300Z,306.88
2023-03-10T21:54:04.078Z,279.52
2023-03-10T21:56:31.911Z,283.50
2023-03-10T21:58:58.988Z,261.50
2023-03-10T22:01:27.193Z,257.38
2023-03-10T22:03:54.354Z,262.30
2023-03-10T22:06:22.259Z,269.45
2023-03-10T22:08:49.741Z,284.30
2023-03-10T22:11:17.218Z,275.75
2023-03-10T22:13:44.657Z,294.63
2023-03-10T22:16:15.012Z,328.27
2023-03-10T22:18:42.579Z,316.10
2023-03-10T22:21:09.775Z,321.85
2023-03-10T22:23:37.243Z,333.90
2023-03-10T22:26:05.082Z,336.40
2023-03-10T22:28:32.493Z,333.02
2023-03-10T22:31:00.186Z,329.27
2023-03-10T22:33:27.341Z,279.95
2023-03-10T22:35:54.848Z,280.45
2023-03-10T22:38:22.341Z,247.57
2023-03-10T22:40:49.808Z,242.35
2023-03-10T22:43:17.165Z,284.40
2023-03-10T22:45:44.818Z,222.18
2023-03-10T22:48:12.034Z,212.10
2023-03-10T22:50:44.038Z,227.40
2023-03-10T22:53:20.669Z,201.53
2023-03-10T22:55:49.388Z,215.95
2023-03-10T22:58:17.047Z,223.65
2023-03-10T23:00:44.412Z,179.68
2023-03-10T23:03:13.431Z,175.63
2023-03-10T23:05:40.725Z,111.45
2023-03-10T23:08:08.348Z,140.48
2023-03-10T23:10:36.358Z,169.40
2023-03-10T23:13:05.710Z,151.80
2023-03-10T23:15:34.965Z,148.75
2023-03-10T23:18:02.414Z,148.70
2023-03-10T23:20:35.819Z,94.45
2023-03-10T23:23:03.427Z,137.70
2023-03-10T23:25:32.621Z,121.15
2023-03-10T23:28:00.229Z,98.18
2023-03-10T23:30:27.468Z,104.65
2023-03-10T23:32:55.197Z,114.43
2023-03-10T23:35:24.854Z,129.93
2023-03-10T23:37:52.329Z,98.78
2023-03-10T23:40:20.535Z,115.88
2023-03-10T23:42:48.070Z,141.95
2023-03-10T23:45:17.119Z,132.85
2023-03-10T23:47:44.878Z,145.25
2023-03-10T23:50:23.170Z,115.25
2023-03-10T23:52:50.698Z,99.97
2023-03-10T23:55:31.999Z,125.40
2023-03-10T23:57:59.483Z,125.13
